createdAt,value
2023-02-24T00:02:01.575Z,17.60
2023-02-24T00:04:36.331Z,21.53
2023-02-24T00:07:03.377Z,23.40
2023-02-24T00:09:33.173Z,18.07
2023-02-24T00:12:08.901Z,19.87
2023-02-24T00:14:39.104Z,18.67
2023-02-24T00:17:10.379Z,15.53
2023-02-24T00:19:38.425Z,17.50
2023-02-24T00:22:07.996Z,16.30
2023-02-24T00:24:35.785Z,20.07
2023-02-24T00:27:08.593Z,14.53
2023-02-24T00:29:37.660Z,18.10
2023-02-24T00:32:07.349Z,17.30
2023-02-24T00:34:37.496Z,18.00
2023-02-24T00:37:09.028Z,17.97
2023-02-24T00:39:41.293Z,20.03
2023-02-24T00:42:08.657Z,19.10
2023-02-24T00:44:39.075Z,21.60
2023-02-24T00:47:10.487Z,18.67
2023-02-24T00:49:42.468Z,15.50
2023-02-24T00:52:13.704Z,14.73
2023-02-24T00:54:45.946Z,14.77
2023-02-24T00:57:14.316Z,16.63
2023-02-24T00:59:41.342Z,19.37
2023-02-24T01:02:08.320Z,15.37
2023-02-24T01:04:37.732Z,17.57
2023-02-24T01:07:10.483Z,20.07
2023-02-24T01:09:41.080Z,20.37
2023-02-24T01:12:29.818Z,16.70
2023-02-24T01:14:57.156Z,17.00
2023-02-24T01:17:25.351Z,21.50
2023-02-24T01:19:52.741Z,15.67
2023-02-24T01:22:21.122Z,17.87
2023-02-24T01:24:48.747Z,19.93
2023-02-24T01:27:18.947Z,18.10
2023-02-24T01:29:49.679Z,18.30
2023-02-24T01:32:21.390Z,16.30
2023-02-24T01:34:52.189Z,16.87
2023-02-24T01:37:20.549Z,16.70
2023-02-24T01:39:48.486Z,17.07
2023-02-24T01:42:20.185Z,22.07
2023-02-24T01:44:47.615Z,26.83
2023-02-24T01:47:20.477Z,21.60
2023-02-24T01:49:50.557Z,22.93
2023-02-24T01:52:30.529Z,26.13
2023-02-24T01:55:08.881Z,20.63
2023-02-24T01:57:41.739Z,22.30
2023-02-24T02:00:19.503Z,26.70
2023-02-24T02:02:52.846Z,25.40
2023-02-24T02:05:21.016Z,24.17
2023-02-24T02:07:50.121Z,24.70
2023-02-24T02:10:18.540Z,25.77
2023-02-24T02:12:46.329Z,24.97
2023-02-24T02:15:20.206Z,23.53
2023-02-24T02:18:11.894Z,21.80
2023-02-24T02:21:18.853Z,26.10
2023-02-24T02:23:55.301Z,21.40
2023-02-24T02:27:04.352Z,23.33
2023-02-24T02:29:58.983Z,22.57
2023-02-24T02:33:01.917Z,19.13
2023-02-24T02:35:38.036Z,26.20
2023-02-24T02:38:25.868Z,19.67
2023-02-24T02:41:22.303Z,20.83
2023-02-24T02:44:07.779Z,22.53
2023-02-24T02:46:51.209Z,19.63
2023-02-24T02:49:22.096Z,18.03
2023-02-24T02:51:54.145Z,23.13
2023-02-24T02:54:52.980Z,17.03
2023-02-24T02:57:30.952Z,20.10
2023-02-24T03:00:21.338Z,18.83
2023-02-24T03:02:56.498Z,19.60
2023-02-24T03:05:31.625Z,16.87
2023-02-24T03:08:04.726Z,22.83
2023-02-24T03:10:34.340Z,20.73
2023-02-24T03:13:05.323Z,18.53
2023-02-24T03:15:34.151Z,18.70
2023-02-24T03:18:10.368Z,18.97
2023-02-24T03:21:07.620Z,19.10
2023-02-24T03:23:50.907Z,14.53
2023-02-24T03:26:58.347Z,19.53
2023-02-24T03:29:44.457Z,18.63
2023-02-24T03:32:33.301Z,15.70
2023-02-24T03:35:17.113Z,16.07
2023-02-24T03:37:45.142Z,19.53
2023-02-24T03:40:14.943Z,18.03
2023-02-24T03:42:47.794Z,18.83
2023-02-24T03:45:16.311Z,17.70
2023-02-24T03:47:45.629Z,18.00
2023-02-24T03:50:19.518Z,17.07
2023-02-24T03:53:22.438Z,19.93
2023-02-24T03:56:05.588Z,16.90
2023-02-24T03:58:52.680Z,16.20
2023-02-24T04:01:39.483Z,17.87
2023-02-24T04:04:38.156Z,17.80
2023-02-24T04:07:40.331Z,19.73
2023-02-24T04:10:22.042Z,18.67
2023-02-24T04:13:43.354Z,16.07
2023-02-24T04:16:44.377Z,15.00
2023-02-24T04:19:18.978Z,16.93
2023-02-24T04:21:48.922Z,15.60
2023-02-24T04:24:20.918Z,19.27
2023-02-24T04:26:49.420Z,14.83
2023-02-24T04:29:22.940Z,14.70
2023-02-24T04:32:01.333Z,18.70
2023-02-24T04:34:32.407Z,18.80
2023-02-24T04:37:02.228Z,19.20
2023-02-24T04:39:31.620Z,19.03
2023-02-24T04:41:59.186Z,16.50
2023-02-24T04:44:28.167Z,17.40
2023-02-24T04:46:56.040Z,16.43
2023-02-24T04:49:22.994Z,17.53
2023-02-24T04:51:51.602Z,20.90
2023-02-24T04:54:20.713Z,15.40
2023-02-24T04:56:53.974Z,19.60
2023-02-24T04:59:22.653Z,18.33
2023-02-24T05:01:52.249Z,20.17
2023-02-24T05:04:19.725Z,16.53
2023-02-24T05:06:47.192Z,14.93
2023-02-24T05:09:17.984Z,15.77
2023-02-24T05:11:51.637Z,19.33
2023-02-24T05:14:24.928Z,20.80
2023-02-24T05:16:52.060Z,17.63
2023-02-24T05:19:38.950Z,18.53
2023-02-24T05:22:11.623Z,18.30
2023-02-24T05:24:38.684Z,20.90
2023-02-24T05:27:05.596Z,18.20
2023-02-24T05:29:34.981Z,17.63
2023-02-24T05:32:04.136Z,17.37
2023-02-24T05:34:33.173Z,19.13
2023-02-24T05:37:04.561Z,19.90
2023-02-24T05:39:31.548Z,23.00
2023-02-24T05:41:58.526Z,16.20
2023-02-24T05:44:27.148Z,18.80
2023-02-24T05:46:58.504Z,16.70
2023-02-24T05:49:34.001Z,18.77
2023-02-24T05:52:08.025Z,16.77
2023-02-24T05:54:41.771Z,19.80
2023-02-24T05:57:13.043Z,21.13
2023-02-24T05:59:44.687Z,21.07
2023-02-24T06:02:15.815Z,19.03
2023-02-24T06:04:50.685Z,18.90
2023-02-24T06:07:24.968Z,19.03
2023-02-24T06:09:58.714Z,19.40
2023-02-24T06:12:30.181Z,20.17
2023-02-24T06:15:00.236Z,16.70
2023-02-24T06:17:28.431Z,20.60
2023-02-24T06:19:55.625Z,21.97
2023-02-24T06:22:25.845Z,37.60
2023-02-24T06:24:55.236Z,53.83
2023-02-24T06:27:24.714Z,66.63
2023-02-24T06:29:53.892Z,68.87
2023-02-24T06:32:25.002Z,54.27
2023-02-24T06:34:53.797Z,22.90
2023-02-24T06:37:22.728Z,22.27
2023-02-24T06:39:49.697Z,23.50
2023-02-24T06:42:16.661Z,20.87
2023-02-24T06:44:43.722Z,20.77
2023-02-24T06:47:16.270Z,22.80
2023-02-24T06:49:43.466Z,20.60
2023-02-24T06:52:11.664Z,26.40
2023-02-24T06:54:38.803Z,20.87
2023-02-24T06:57:05.870Z,22.80
2023-02-24T06:59:32.831Z,20.90
2023-02-24T07:02:04.511Z,22.50
2023-02-24T07:04:41.858Z,20.87
2023-02-24T07:07:08.895Z,20.63
2023-02-24T07:09:35.949Z,23.80
2023-02-24T07:12:04.566Z,23.67
2023-02-24T07:14:31.728Z,20.97
2023-02-24T07:17:00.163Z,24.40
2023-02-24T07:19:32.369Z,21.53
2023-02-24T07:22:03.585Z,25.60
2023-02-24T07:24:36.184Z,25.80
2023-02-24T07:27:12.126Z,19.43
2023-02-24T07:29:39.658Z,22.13
2023-02-24T07:32:09.293Z,22.07
2023-02-24T07:34:40.009Z,21.97
2023-02-24T07:37:09.068Z,21.93
2023-02-24T07:39:39.109Z,20.93
2023-02-24T07:42:09.524Z,24.50
2023-02-24T07:44:36.671Z,22.33
2023-02-24T07:47:08.105Z,21.47
2023-02-24T07:49:39.516Z,21.93
2023-02-24T07:52:08.227Z,23.20
2023-02-24T07:54:37.028Z,19.30
2023-02-24T07:57:05.811Z,22.60
2023-02-24T07:59:38.030Z,24.63
2023-02-24T08:02:07.624Z,22.93
2023-02-24T08:04:36.426Z,20.27
2023-02-24T08:07:14.469Z,27.83
2023-02-24T08:09:45.265Z,61.27
2023-02-24T08:12:22.492Z,36.27
2023-02-24T08:14:54.041Z,65.50
2023-02-24T08:17:26.937Z,38.30
2023-02-24T08:20:14.184Z,22.63
2023-02-24T08:22:52.231Z,17.40
2023-02-24T08:25:25.313Z,35.10
2023-02-24T08:28:12.995Z,64.23
2023-02-24T08:30:46.941Z,39.50
2023-02-24T08:33:21.317Z,23.27
2023-02-24T08:36:01.453Z,18.17
2023-02-24T08:38:42.577Z,17.10
2023-02-24T08:41:18.542Z,20.10
2023-02-24T08:43:47.881Z,18.50
2023-02-24T08:46:21.118Z,21.80
2023-02-24T08:48:50.449Z,16.97
2023-02-24T08:51:34.995Z,16.50
2023-02-24T08:54:11.190Z,18.57
2023-02-24T08:56:43.701Z,16.30
2023-02-24T08:59:29.250Z,17.30
2023-02-24T09:02:17.343Z,143.80
2023-02-24T09:04:53.040Z,28.93
2023-02-24T09:07:35.569Z,16.67
2023-02-24T09:10:23.056Z,19.83
2023-02-24T09:12:53.540Z,15.63
2023-02-24T09:15:22.708Z,21.83
2023-02-24T09:17:50.119Z,18.37
2023-02-24T09:20:25.914Z,16.97
2023-02-24T09:23:05.724Z,18.20
2023-02-24T09:25:44.741Z,18.00
2023-02-24T09:28:20.530Z,20.47
2023-02-24T09:30:58.162Z,18.03
2023-02-24T09:33:27.785Z,18.43
2023-02-24T09:36:12.791Z,18.80
2023-02-24T09:39:01.654Z,15.20
2023-02-24T09:41:56.627Z,15.47
2023-02-24T09:44:38.430Z,18.53
2023-02-24T09:47:19.943Z,24.30
2023-02-24T09:49:56.255Z,95.07
2023-02-24T09:52:42.158Z,31.57
2023-02-24T09:55:38.738Z,17.73
2023-02-24T09:58:41.834Z,15.93
2023-02-24T10:01:34.377Z,17.67
2023-02-24T10:04:29.568Z,16.07
2023-02-24T10:07:03.050Z,13.37
2023-02-24T10:09:56.099Z,15.40
2023-02-24T10:12:40.415Z,14.30
2023-02-24T10:15:19.200Z,18.07
2023-02-24T10:18:29.111Z,13.67
2023-02-24T10:21:20.632Z,15.20
2023-02-24T10:24:16.405Z,15.67
2023-02-24T10:27:08.775Z,17.23
2023-02-24T10:30:01.304Z,19.73
2023-02-24T10:32:50.158Z,19.13
2023-02-24T10:35:26.071Z,106.63
2023-02-24T10:37:54.144Z,92.47
2023-02-24T10:40:44.731Z,63.30
2023-02-24T10:43:18.497Z,23.13
2023-02-24T10:45:47.235Z,15.67
2023-02-24T10:48:43.098Z,16.23
2023-02-24T10:51:30.395Z,15.30
2023-02-24T10:54:33.528Z,18.50
2023-02-24T10:57:18.243Z,16.77
2023-02-24T11:00:18.517Z,15.77
2023-02-24T11:03:09.869Z,18.47
2023-02-24T11:06:03.648Z,18.57
2023-02-24T11:08:48.126Z,13.93
2023-02-24T11:11:29.598Z,19.33
2023-02-24T11:14:20.416Z,18.13
2023-02-24T11:17:14.900Z,18.53
2023-02-24T11:20:10.888Z,17.87
2023-02-24T11:22:43.559Z,18.43
2023-02-24T11:25:23.716Z,24.23
2023-02-24T11:27:52.292Z,34.67
2023-02-24T11:30:31.158Z,20.03
2023-02-24T11:33:36.540Z,17.40
2023-02-24T11:36:45.168Z,14.40
2023-02-24T11:39:49.167Z,15.20
2023-02-24T11:42:31.966Z,14.20
2023-02-24T11:45:13.140Z,17.40
2023-02-24T11:47:50.686Z,15.80
2023-02-24T11:50:36.924Z,11.67
2023-02-24T11:53:15.294Z,14.13
2023-02-24T11:55:46.942Z,13.93
2023-02-24T11:58:58.817Z,14.53
2023-02-24T12:01:32.570Z,13.07
2023-02-24T12:04:26.584Z,13.93
2023-02-24T12:07:08.886Z,24.20
2023-02-24T12:09:48.184Z,14.70
2023-02-24T12:12:28.674Z,18.73
2023-02-24T12:15:14.150Z,21.87
2023-02-24T12:18:27.885Z,18.80
2023-02-24T12:21:06.739Z,15.93
2023-02-24T12:23:37.561Z,17.63
2023-02-24T12:26:42.953Z,17.03
2023-02-24T12:30:05.856Z,18.40
2023-02-24T12:33:43.947Z,16.67
2023-02-24T12:36:25.177Z,16.50
2023-02-24T12:39:18.701Z,23.30
2023-02-24T12:42:03.623Z,20.73
2023-02-24T12:44:41.794Z,20.60
2023-02-24T12:47:25.543Z,17.90
2023-02-24T12:50:28.951Z,23.73
2023-02-24T12:53:19.293Z,19.30
2023-02-24T12:56:04.237Z,20.50
2023-02-24T12:58:37.012Z,16.23
2023-02-24T13:01:38.033Z,20.80
2023-02-24T13:04:39.505Z,23.63
2023-02-24T13:07:22.762Z,17.53
2023-02-24T13:10:24.000Z,18.83
2023-02-24T13:13:31.658Z,18.20
2023-02-24T13:16:02.926Z,18.37
2023-02-24T13:18:33.862Z,19.30
2023-02-24T13:21:22.823Z,17.77
2023-02-24T13:24:24.093Z,17.10
2023-02-24T13:26:51.051Z,19.77
2023-02-24T13:29:18.094Z,22.40
2023-02-24T13:31:49.566Z,22.87
2023-02-24T13:34:34.265Z,21.00
2023-02-24T13:37:01.272Z,17.70
2023-02-24T13:39:46.691Z,23.13
2023-02-24T13:42:27.114Z,21.37
2023-02-24T13:45:22.021Z,19.60
2023-02-24T13:48:25.858Z,22.40
2023-02-24T13:51:02.353Z,18.83
2023-02-24T13:54:17.662Z,25.30
2023-02-24T13:56:53.713Z,19.23
2023-02-24T14:00:25.414Z,22.57
2023-02-24T14:02:53.385Z,20.10
2023-02-24T14:05:35.781Z,23.60
2023-02-24T14:08:04.598Z,20.10
2023-02-24T14:10:34.633Z,22.60
2023-02-24T14:13:20.696Z,21.80
2023-02-24T14:15:48.157Z,21.50
2023-02-24T14:18:23.508Z,20.80
2023-02-24T14:20:53.120Z,24.93
2023-02-24T14:23:27.035Z,25.63
2023-02-24T14:26:12.481Z,24.43
2023-02-24T14:28:42.011Z,24.03
2023-02-24T14:31:13.614Z,29.40
2023-02-24T14:33:46.045Z,32.00
2023-02-24T14:36:24.994Z,28.93
2023-02-24T14:39:15.983Z,44.03
2023-02-24T14:41:44.602Z,43.67
2023-02-24T14:44:26.331Z,30.60
2023-02-24T14:46:59.874Z,25.07
2023-02-24T14:49:33.454Z,40.80
2023-02-24T14:52:36.382Z,27.57
2023-02-24T14:55:23.414Z,29.67
2023-02-24T14:57:50.493Z,27.63
2023-02-24T15:00:54.342Z,29.17
2023-02-24T15:03:25.776Z,26.37
2023-02-24T15:05:56.300Z,36.20
2023-02-24T15:08:44.664Z,26.93
2023-02-24T15:11:17.475Z,29.37
2023-02-24T15:13:47.501Z,27.00
2023-02-24T15:16:32.314Z,28.43
2023-02-24T15:19:01.452Z,30.90
2023-02-24T15:21:39.441Z,31.13
2023-02-24T15:24:30.881Z,30.70
2023-02-24T15:27:21.653Z,34.23
2023-02-24T15:30:08.609Z,34.70
2023-02-24T15:32:38.062Z,25.20
2023-02-24T15:35:06.122Z,31.70
2023-02-24T15:37:54.933Z,27.30
2023-02-24T15:40:25.187Z,28.77
2023-02-24T15:42:58.922Z,28.33
2023-02-24T15:45:38.573Z,26.60
2023-02-24T15:48:26.884Z,30.20
2023-02-24T15:50:55.766Z,27.33
2023-02-24T15:53:22.722Z,26.07
2023-02-24T15:55:50.472Z,38.17
2023-02-24T15:58:21.694Z,33.37
2023-02-24T16:00:52.400Z,27.00
2023-02-24T16:03:19.670Z,28.50
2023-02-24T16:05:46.638Z,32.87
2023-02-24T16:08:19.624Z,33.43
2023-02-24T16:10:47.320Z,26.63
2023-02-24T16:13:22.018Z,29.20
2023-02-24T16:15:49.946Z,29.27
2023-02-24T16:18:24.134Z,31.33
2023-02-24T16:20:54.609Z,31.93
2023-02-24T16:23:23.968Z,31.93
2023-02-24T16:25:56.027Z,27.80
2023-02-24T16:28:23.997Z,32.07
2023-02-24T16:30:52.110Z,32.83
2023-02-24T16:33:22.513Z,35.57
2023-02-24T16:35:53.346Z,35.23
2023-02-24T16:38:22.375Z,34.03
2023-02-24T16:40:50.200Z,27.80
2023-02-24T16:43:17.264Z,30.43
2023-02-24T16:45:45.972Z,33.40
2023-02-24T16:48:21.971Z,35.37
2023-02-24T16:50:49.426Z,39.50
2023-02-24T16:53:20.520Z,39.90
2023-02-24T16:55:48.263Z,34.37
2023-02-24T16:58:16.290Z,37.03
2023-02-24T17:00:47.200Z,34.87
2023-02-24T17:03:22.620Z,38.23
2023-02-24T17:05:57.724Z,48.57
2023-02-24T17:08:27.183Z,40.20
2023-02-24T17:10:54.282Z,36.97
2023-02-24T17:13:22.453Z,46.00
2023-02-24T17:15:55.376Z,41.70
2023-02-24T17:18:23.799Z,41.73
2023-02-24T17:20:50.822Z,49.27
2023-02-24T17:23:18.277Z,39.37
2023-02-24T17:25:47.531Z,41.10
2023-02-24T17:28:14.551Z,39.50
2023-02-24T17:30:41.710Z,42.00
2023-02-24T17:33:08.840Z,43.17
2023-02-24T17:35:36.125Z,47.90
2023-02-24T17:38:03.180Z,47.97
2023-02-24T17:40:30.326Z,47.97
2023-02-24T17:42:57.504Z,49.50
2023-02-24T17:45:24.922Z,45.13
2023-02-24T17:47:53.740Z,42.43
2023-02-24T17:50:20.851Z,51.20
2023-02-24T17:52:48.071Z,40.63
2023-02-24T17:55:15.007Z,46.90
2023-02-24T17:57:42.184Z,46.13
2023-02-24T18:00:12.478Z,45.13
2023-02-24T18:02:39.978Z,46.93
2023-02-24T18:05:08.285Z,47.27
2023-02-24T18:07:35.303Z,52.97
2023-02-24T18:10:02.753Z,45.97
2023-02-24T18:12:29.771Z,50.20
2023-02-24T18:15:07.850Z,49.63
2023-02-24T18:17:38.327Z,45.80
2023-02-24T18:20:08.211Z,44.93
2023-02-24T18:22:35.936Z,42.73
2023-02-24T18:25:03.040Z,45.00
2023-02-24T18:27:29.992Z,46.23
2023-02-24T18:29:56.885Z,46.63
2023-02-24T18:32:24.373Z,39.47
2023-02-24T18:34:51.427Z,46.23
2023-02-24T18:37:18.416Z,50.93
2023-02-24T18:39:45.362Z,45.27
2023-02-24T18:42:12.399Z,47.70
2023-02-24T18:44:39.382Z,49.83
2023-02-24T18:47:09.536Z,44.73
2023-02-24T18:49:37.340Z,47.70
2023-02-24T18:52:05.516Z,47.10
2023-02-24T18:54:34.143Z,47.40
2023-02-24T18:57:02.146Z,52.03
2023-02-24T18:59:29.612Z,48.83
2023-02-24T19:01:56.972Z,46.37
2023-02-24T19:04:24.917Z,49.03
2023-02-24T19:06:52.050Z,60.40
2023-02-24T19:09:21.797Z,49.23
2023-02-24T19:11:50.223Z,44.10
2023-02-24T19:14:17.712Z,49.47
2023-02-24T19:16:45.394Z,46.03
2023-02-24T19:19:16.760Z,46.07
2023-02-24T19:21:45.518Z,53.43
2023-02-24T19:24:14.010Z,47.57
2023-02-24T19:26:43.900Z,44.60
2023-02-24T19:29:11.533Z,49.37
2023-02-24T19:31:39.180Z,49.90
2023-02-24T19:34:11.054Z,51.10
2023-02-24T19:36:38.762Z,45.60
2023-02-24T19:39:09.658Z,45.23
2023-02-24T19:41:37.892Z,54.23
2023-02-24T19:44:04.962Z,46.50
2023-02-24T19:46:34.054Z,44.73
2023-02-24T19:49:01.712Z,41.77
2023-02-24T19:51:29.623Z,41.80
2023-02-24T19:53:59.437Z,41.40
2023-02-24T19:56:32.784Z,43.47
2023-02-24T19:59:01.929Z,40.70
2023-02-24T20:01:30.259Z,38.77
2023-02-24T20:04:01.005Z,37.67
2023-02-24T20:06:40.783Z,35.07
2023-02-24T20:09:11.683Z,36.77
2023-02-24T20:11:39.819Z,31.83
2023-02-24T20:14:08.821Z,34.03
2023-02-24T20:16:39.102Z,40.37
2023-02-24T20:19:07.443Z,36.37
2023-02-24T20:21:35.734Z,41.80
2023-02-24T20:24:05.125Z,33.97
2023-02-24T20:26:32.746Z,40.73
2023-02-24T20:29:00.689Z,40.53
2023-02-24T20:31:27.951Z,45.53
2023-02-24T20:33:56.446Z,34.27
2023-02-24T20:36:27.507Z,37.53
2023-02-24T20:38:57.823Z,42.37
2023-02-24T20:41:26.706Z,38.50
2023-02-24T20:43:55.235Z,37.07
2023-02-24T20:46:28.847Z,37.27
2023-02-24T20:49:02.553Z,40.73
2023-02-24T20:51:31.125Z,46.33
2023-02-24T20:53:59.212Z,46.20
2023-02-24T20:56:29.646Z,37.30
2023-02-24T20:59:22.582Z,39.30
2023-02-24T21:01:50.942Z,34.67
2023-02-24T21:04:20.695Z,33.23
2023-02-24T21:06:48.481Z,31.10
2023-02-24T21:09:16.057Z,34.80
2023-02-24T21:11:43.146Z,33.50
2023-02-24T21:14:15.710Z,39.67
2023-02-24T21:16:43.076Z,34.40
2023-02-24T21:19:10.189Z,37.20
2023-02-24T21:21:37.102Z,36.47
2023-02-24T21:24:05.791Z,35.43
2023-02-24T21:26:32.955Z,33.47
2023-02-24T21:28:59.953Z,37.37
2023-02-24T21:31:27.559Z,30.80
2023-02-24T21:33:55.672Z,37.97
2023-02-24T21:36:26.697Z,38.50
2023-02-24T21:38:55.178Z,37.07
2023-02-24T21:41:23.734Z,34.60
2023-02-24T21:43:55.422Z,35.80
2023-02-24T21:46:25.953Z,37.20
2023-02-24T21:48:59.543Z,35.00
2023-02-24T21:51:27.840Z,39.07
2023-02-24T21:53:55.221Z,48.20
2023-02-24T21:56:26.477Z,49.20
2023-02-24T21:59:05.945Z,45.33
2023-02-24T22:01:40.408Z,49.13
2023-02-24T22:04:12.234Z,47.17
2023-02-24T22:06:41.279Z,49.03
2023-02-24T22:09:10.621Z,48.43
2023-02-24T22:11:41.006Z,41.00
2023-02-24T22:14:13.550Z,50.60
2023-02-24T22:16:42.284Z,42.87
2023-02-24T22:19:09.406Z,38.80
2023-02-24T22:21:37.042Z,45.23
2023-02-24T22:24:04.511Z,45.70
2023-02-24T22:26:32.587Z,43.30
2023-02-24T22:29:00.836Z,44.53
2023-02-24T22:31:31.697Z,40.40
2023-02-24T22:33:58.889Z,41.67
2023-02-24T22:36:33.568Z,43.17
2023-02-24T22:39:01.978Z,39.30
2023-02-24T22:41:32.910Z,39.17
2023-02-24T22:44:01.890Z,42.87
2023-02-24T22:46:33.433Z,36.87
2023-02-24T22:49:00.581Z,46.17
2023-02-24T22:51:28.652Z,37.13
2023-02-24T22:53:56.394Z,44.70
2023-02-24T22:56:27.926Z,41.90
2023-02-24T22:58:55.374Z,39.33
2023-02-24T23:01:32.060Z,32.87
2023-02-24T23:04:01.288Z,35.17
2023-02-24T23:06:28.608Z,33.80
2023-02-24T23:08:58.865Z,29.20
2023-02-24T23:11:32.276Z,36.57
2023-02-24T23:14:03.725Z,34.50
2023-02-24T23:16:35.224Z,33.57
2023-02-24T23:19:07.461Z,38.80
2023-02-24T23:21:42.392Z,33.53
2023-02-24T23:24:13.597Z,37.20
2023-02-24T23:26:57.999Z,34.40
2023-02-24T23:29:26.669Z,34.00
2023-02-24T23:31:54.188Z,30.13
2023-02-24T23:34:21.365Z,33.60
2023-02-24T23:36:48.732Z,33.50
2023-02-24T23:39:20.473Z,31.67
2023-02-24T23:41:47.766Z,34.90
2023-02-24T23:44:14.687Z,32.07
2023-02-24T23:46:42.073Z,38.60
2023-02-24T23:49:09.653Z,30.47
2023-02-24T23:51:47.733Z,29.63
2023-02-24T23:54:16.913Z,35.40
2023-02-24T23:56:43.890Z,33.20
2023-02-24T23:59:11.829Z,38.50
